Time;durP1;ratioP1;P1;durP2;ratioP2;P2;SDS_P1;SDS_P2;PMS_P1;PMS_P2;Temp;Humidity;BMP_temperature;BMP_pressure;BME280_temperature;BME280_humidity;BME280_pressure;Samples;Min_cycle;Max_cycle;Signal;HPM_P1;HPM_P2
2023/12/23 00:01:25;;;;;;;0.82;0.82;;;;;8.60;94860.00;;;;8217806;28;20324;-82
2023/12/23 00:05:28;;;;;;;0.90;0.90;;;;;8.60;94861.00;;;;8215151;28;20282;-83
2023/12/23 00:09:32;;;;;;;1.00;1.00;;;;;8.70;94880.00;;;;8221325;28;20958;-83
2023/12/23 00:13:36;;;;;;;1.30;1.05;;;;;8.70;94889.00;;;;8214763;28;20237;-83
2023/12/23 00:17:39;;;;;;;1.20;1.20;;;;;8.80;94893.00;;;;8216836;28;20254;-82
2023/12/23 00:21:42;;;;;;;1.77;1.00;;;;;8.80;94893.00;;;;8213697;28;20326;-82
2023/12/23 00:25:47;;;;;;;1.00;1.00;;;;;8.80;94867.00;;;;8215521;28;20211;-83
2023/12/23 00:29:51;;;;;;;0.85;0.85;;;;;8.60;94871.00;;;;8216097;28;20250;-82
2023/12/23 00:33:54;;;;;;;2.53;0.90;;;;;8.60;94865.00;;;;8222998;28;20244;-82
2023/12/23 00:37:57;;;;;;;0.88;0.88;;;;;8.60;94907.00;;;;8221660;28;20206;-80
2023/12/23 00:42:01;;;;;;;0.80;0.80;;;;;8.40;94897.00;;;;8221402;28;20200;-79
2023/12/23 00:46:04;;;;;;;1.02;0.90;;;;;8.30;94909.00;;;;8224133;28;20291;-78
2023/12/23 00:50:09;;;;;;;1.75;1.75;;;;;8.20;94913.00;;;;8221454;28;20299;-76
2023/12/23 00:54:12;;;;;;;1.85;1.02;;;;;7.90;94906.00;;;;8220249;28;20203;-76
2023/12/23 00:58:17;;;;;;;0.85;0.85;;;;;7.80;94911.00;;;;8221341;28;20268;-75
2023/12/23 01:02:20;;;;;;;2.05;1.10;;;;;7.70;94946.00;;;;8220846;28;20250;-74
2023/12/23 01:06:23;;;;;;;6.00;1.47;;;;;7.70;94959.00;;;;8221350;28;20199;-75
2023/12/23 01:10:26;;;;;;;1.20;1.10;;;;;7.60;94998.00;;;;8225093;28;21006;-75
2023/12/23 01:14:31;;;;;;;1.45;0.90;;;;;7.60;95024.00;;;;8222012;28;20536;-74
2023/12/23 01:18:34;;;;;;;0.60;0.60;;;;;7.10;95037.00;;;;8212791;28;20286;-77
2023/12/23 01:22:38;;;;;;;0.50;0.50;;;;;6.60;95010.00;;;;8221702;28;20243;-77
2023/12/23 01:26:41;;;;;;;0.83;0.70;;;;;6.40;95039.00;;;;8225258;28;20208;-76
2023/12/23 01:30:45;;;;;;;0.57;0.57;;;;;6.30;95049.00;;;;8227259;28;20786;-76
2023/12/23 01:34:49;;;;;;;0.70;0.60;;;;;6.20;95070.00;;;;8225796;28;20218;-76
2023/12/23 01:38:52;;;;;;;1.90;0.70;;;;;6.20;95105.00;;;;8215636;28;20192;-74
2023/12/23 01:42:55;;;;;;;0.50;0.50;;;;;6.20;95120.00;;;;8220922;28;20298;-75
2023/12/23 01:47:02;;;;;;;1.77;0.60;;;;;6.10;95129.00;;;;8222271;28;20641;-75
2023/12/23 01:51:05;;;;;;;0.57;0.57;;;;;6.10;95140.00;;;;8219273;28;20231;-74
2023/12/23 01:55:09;;;;;;;0.50;0.50;;;;;6.10;95137.00;;;;8220173;28;20310;-74
2023/12/23 01:59:12;;;;;;;0.70;0.70;;;;;6.10;95113.00;;;;8220348;28;20637;-74
2023/12/23 02:03:18;;;;;;;0.60;0.60;;;;;6.10;95142.00;;;;8222394;28;20338;-74
2023/12/23 02:07:21;;;;;;;0.50;0.50;;;;;6.20;95152.00;;;;8219871;28;20306;-74
2023/12/23 02:11:35;;;;;;;2.10;0.80;;;;;6.20;95162.00;;;;8219229;28;20234;-74
2023/12/23 02:15:41;;;;;;;0.63;0.53;;;;;6.20;95163.00;;;;8218285;28;20270;-74
2023/12/23 02:19:45;;;;;;;0.50;0.50;;;;;6.20;95179.00;;;;8217488;28;20203;-74
2023/12/23 02:23:50;;;;;;;0.70;0.70;;;;;6.20;95175.00;;;;8220459;28;20208;-73
2023/12/23 02:27:57;;;;;;;0.60;0.60;;;;;6.20;95186.00;;;;8213710;28;20199;-73
2023/12/23 02:32:02;;;;;;;0.60;0.60;;;;;6.20;95179.00;;;;8219162;28;20216;-74
2023/12/23 02:36:06;;;;;;;0.80;0.80;;;;;6.20;95213.00;;;;8218029;28;20192;-74
2023/12/23 02:40:11;;;;;;;1.13;1.00;;;;;6.20;95239.00;;;;8217120;28;20614;-74
2023/12/23 02:44:14;;;;;;;0.90;0.90;;;;;6.20;95240.00;;;;8218832;28;20199;-75
2023/12/23 02:48:17;;;;;;;0.67;0.67;;;;;6.20;95228.00;;;;8218618;28;20893;-74
2023/12/23 02:52:21;;;;;;;0.77;0.77;;;;;6.10;95254.00;;;;8216663;28;20605;-75
2023/12/23 02:56:25;;;;;;;1.40;0.60;;;;;6.10;95260.00;;;;8219480;28;20198;-74
2023/12/23 03:00:28;;;;;;;0.60;0.60;;;;;6.10;95257.00;;;;8216910;28;20195;-73
2023/12/23 03:04:32;;;;;;;1.40;0.80;;;;;6.10;95286.00;;;;8299168;23;20225;-74
2023/12/23 03:08:36;;;;;;;0.90;0.90;;;;;6.10;95299.00;;;;8269387;28;20205;-76
2023/12/23 03:12:40;;;;;;;0.60;0.60;;;;;6.00;95287.00;;;;8273635;28;20778;-75
2023/12/23 03:16:44;;;;;;;0.83;0.70;;;;;6.00;95293.00;;;;8274654;28;20298;-75
2023/12/23 03:20:47;;;;;;;0.70;0.70;;;;;6.00;95289.00;;;;8277553;28;20209;-76
2023/12/23 03:24:50;;;;;;;0.70;0.70;;;;;6.00;95288.00;;;;8275704;28;20560;-77
2023/12/23 03:28:55;;;;;;;0.80;0.80;;;;;6.00;95300.00;;;;8272942;28;20322;-76
2023/12/23 03:32:58;;;;;;;0.60;0.60;;;;;6.00;95299.00;;;;8278288;28;20218;-75
2023/12/23 03:37:01;;;;;;;0.90;0.90;;;;;6.00;95301.00;;;;8278758;28;20655;-75
2023/12/23 03:41:04;;;;;;;0.80;0.80;;;;;6.00;95296.00;;;;8279250;28;20201;-76
2023/12/23 03:45:10;;;;;;;1.53;0.90;;;;;6.00;95324.00;;;;8277794;28;20762;-76
2023/12/23 03:49:13;;;;;;;2.30;0.87;;;;;6.00;95322.00;;;;8287152;28;20290;-75
2023/12/23 03:53:16;;;;;;;1.93;1.00;;;;;6.00;95317.00;;;;8278818;28;20714;-75
2023/12/23 03:57:19;;;;;;;1.90;0.90;;;;;6.00;95327.00;;;;8285028;28;20699;-75
2023/12/23 04:01:23;;;;;;;0.90;0.90;;;;;5.90;95330.00;;;;8281819;28;20224;-75
2023/12/23 04:05:26;;;;;;;1.00;0.90;;;;;5.90;95327.00;;;;8293794;28;20207;-75
2023/12/23 04:09:30;;;;;;;0.80;0.80;;;;;5.90;95323.00;;;;8298669;28;20289;-75
2023/12/23 04:13:33;;;;;;;0.97;0.97;;;;;5.80;95338.00;;;;8294649;28;20340;-75
2023/12/23 04:17:39;;;;;;;0.70;0.70;;;;;5.80;95321.00;;;;8293349;28;20198;-76
2023/12/23 04:21:42;;;;;;;1.57;1.00;;;;;5.80;95350.00;;;;8287311;28;20236;-76
2023/12/23 04:25:45;;;;;;;0.70;0.70;;;;;5.90;95336.00;;;;8291778;28;20292;-76
2023/12/23 04:29:48;;;;;;;2.20;0.90;;;;;5.90;95322.00;;;;8307670;28;20189;-75
2023/12/23 04:33:53;;;;;;;0.93;0.80;;;;;5.90;95316.00;;;;8303685;28;20232;-75
2023/12/23 04:37:56;;;;;;;3.97;3.07;;;;;5.90;95303.00;;;;8303717;28;20280;-74
2023/12/23 04:41:59;;;;;;;0.70;0.70;;;;;5.90;95298.00;;;;8286163;28;20210;-75
2023/12/23 04:46:02;;;;;;;0.90;0.87;;;;;5.90;95312.00;;;;8289860;28;20234;-75
2023/12/23 04:50:08;;;;;;;0.80;0.80;;;;;5.90;95311.00;;;;8294392;28;20198;-75
2023/12/23 04:54:12;;;;;;;0.60;0.60;;;;;5.90;95318.00;;;;8309923;28;20316;-75
2023/12/23 04:58:15;;;;;;;0.63;0.63;;;;;5.90;95326.00;;;;8312336;28;20204;-74
2023/12/23 05:02:18;;;;;;;2.17;0.70;;;;;5.80;95309.00;;;;8300442;28;20256;-75
2023/12/23 05:06:22;;;;;;;2.77;0.67;;;;;5.80;95303.00;;;;8301543;28;20193;-75
2023/12/23 05:10:25;;;;;;;1.80;0.80;;;;;5.80;95309.00;;;;8298357;28;20198;-75
2023/12/23 05:14:29;;;;;;;0.80;0.80;;;;;5.70;95307.00;;;;8312654;28;20392;-76
2023/12/23 05:18:34;;;;;;;1.40;0.70;;;;;5.70;95310.00;;;;8315173;28;20305;-75
2023/12/23 05:22:38;;;;;;;2.00;0.60;;;;;5.70;95303.00;;;;8302975;28;20792;-75
2023/12/23 05:26:41;;;;;;;0.60;0.60;;;;;5.70;95307.00;;;;8322078;28;20206;-75
2023/12/23 05:30:45;;;;;;;1.10;0.50;;;;;5.70;95293.00;;;;8304841;28;20210;-75
2023/12/23 05:34:48;;;;;;;0.50;0.50;;;;;5.70;95293.00;;;;8304228;28;20218;-75
2023/12/23 05:38:52;;;;;;;0.70;0.70;;;;;5.70;95292.00;;;;8307254;28;20248;-75
2023/12/23 05:42:56;;;;;;;0.60;0.60;;;;;5.70;95296.00;;;;8307703;28;20660;-75
2023/12/23 05:46:59;;;;;;;0.67;0.67;;;;;5.80;95314.00;;;;8307206;28;20413;-76
2023/12/23 05:51:03;;;;;;;0.50;0.50;;;;;5.80;95312.00;;;;8300342;28;20216;-76
2023/12/23 05:55:09;;;;;;;0.70;0.70;;;;;5.90;95304.00;;;;8308938;28;20231;-76
2023/12/23 05:59:12;;;;;;;0.60;0.60;;;;;5.90;95298.00;;;;8314903;28;20206;-76
2023/12/23 06:03:15;;;;;;;0.60;0.60;;;;;5.90;95292.00;;;;8297028;28;20247;-76
2023/12/23 06:07:18;;;;;;;0.50;0.50;;;;;6.00;95280.00;;;;8300460;28;20198;-75
2023/12/23 06:11:23;;;;;;;0.60;0.60;;;;;6.10;95275.00;;;;8293895;28;20233;-75
2023/12/23 06:15:26;;;;;;;0.70;0.70;;;;;6.10;95275.00;;;;8299403;28;20685;-75
2023/12/23 06:19:29;;;;;;;0.40;0.40;;;;;6.20;95279.00;;;;8303373;28;20198;-75
2023/12/23 06:23:32;;;;;;;0.50;0.50;;;;;6.30;95271.00;;;;8311694;28;20288;-74
2023/12/23 06:27:37;;;;;;;0.40;0.40;;;;;6.30;95263.00;;;;8297603;28;20763;-75
2023/12/23 06:31:41;;;;;;;0.40;0.40;;;;;6.40;95264.00;;;;8314944;28;20685;-75
2023/12/23 06:35:44;;;;;;;0.40;0.40;;;;;6.50;95257.00;;;;8305680;28;20599;-77
2023/12/23 06:39:47;;;;;;;0.40;0.40;;;;;6.50;95259.00;;;;8307906;28;20317;-76
2023/12/23 06:43:52;;;;;;;0.40;0.40;;;;;6.60;95247.00;;;;8308910;28;20581;-73
2023/12/23 06:47:55;;;;;;;0.40;0.40;;;;;6.70;95246.00;;;;8294643;28;20197;-74
2023/12/23 06:51:59;;;;;;;0.40;0.40;;;;;6.80;95243.00;;;;8300096;28;20729;-73
2023/12/23 06:56:05;;;;;;;0.40;0.40;;;;;6.90;95225.00;;;;8303574;28;20201;-73
2023/12/23 07:00:10;;;;;;;0.50;0.50;;;;;6.90;95232.00;;;;8312110;28;20255;-75
2023/12/23 07:04:14;;;;;;;0.40;0.40;;;;;6.90;95234.00;;;;8303236;28;20264;-75
2023/12/23 07:08:17;;;;;;;3.50;1.03;;;;;7.00;95225.00;;;;8302770;28;20233;-74
2023/12/23 07:12:20;;;;;;;0.97;0.97;;;;;7.00;95232.00;;;;8300756;28;20217;-73
2023/12/23 07:16:25;;;;;;;0.87;0.87;;;;;7.00;95239.00;;;;8294305;28;20205;-73
2023/12/23 07:20:29;;;;;;;0.77;0.77;;;;;7.00;95221.00;;;;8312151;28;20813;-73
2023/12/23 07:24:32;;;;;;;0.80;0.80;;;;;7.00;95238.00;;;;8298476;28;21092;-73
2023/12/23 07:28:36;;;;;;;0.73;0.70;;;;;7.10;95221.00;;;;8297313;28;20209;-73
2023/12/23 07:32:40;;;;;;;0.90;0.90;;;;;7.10;95232.00;;;;8301141;28;20236;-73
2023/12/23 07:36:43;;;;;;;2.40;1.20;;;;;7.10;95211.00;;;;8300666;28;20864;-73
2023/12/23 07:40:47;;;;;;;2.87;1.30;;;;;7.10;95215.00;;;;8301220;28;20284;-72
2023/12/23 07:44:50;;;;;;;3.93;0.80;;;;;7.10;95207.00;;;;8303196;28;20210;-73
2023/12/23 07:48:55;;;;;;;4.07;1.23;;;;;7.10;95223.00;;;;8305784;28;20204;-73
2023/12/23 07:52:58;;;;;;;1.17;1.10;;;;;7.10;95195.00;;;;8296463;28;20229;-72
2023/12/23 07:57:01;;;;;;;0.77;0.77;;;;;7.10;95202.00;;;;8300172;28;20236;-72
2023/12/23 08:01:04;;;;;;;2.30;0.88;;;;;7.20;95192.00;;;;8300376;28;20913;-72
2023/12/23 08:05:11;;;;;;;0.90;0.90;;;;;7.20;95188.00;;;;8299090;28;20210;-72
2023/12/23 08:09:18;;;;;;;4.45;0.90;;;;;7.20;95210.00;;;;8296152;28;20372;-71
2023/12/23 08:13:21;;;;;;;1.80;1.10;;;;;7.20;95184.00;;;;8292142;28;20223;-74
2023/12/23 08:17:25;;;;;;;0.90;0.90;;;;;7.20;95188.00;;;;8289225;28;20205;-75
2023/12/23 08:21:30;;;;;;;0.90;0.90;;;;;7.20;95182.00;;;;8292184;28;20914;-75
2023/12/23 08:25:33;;;;;;;0.70;0.70;;;;;7.20;95183.00;;;;8298819;28;20296;-77
2023/12/23 08:29:36;;;;;;;0.70;0.67;;;;;7.20;95186.00;;;;8296553;28;20206;-77
2023/12/23 08:33:39;;;;;;;2.55;0.93;;;;;7.20;95166.00;;;;8297402;28;20260;-76
2023/12/23 08:37:44;;;;;;;0.63;0.63;;;;;7.30;95175.00;;;;8294479;28;20205;-75
2023/12/23 08:41:47;;;;;;;0.77;0.77;;;;;7.30;95178.00;;;;8291905;28;20296;-76
2023/12/23 08:45:50;;;;;;;0.70;0.70;;;;;7.30;95178.00;;;;8301855;28;20202;-75
2023/12/23 08:49:53;;;;;;;2.97;0.70;;;;;7.30;95162.00;;;;8299464;28;20213;-76
2023/12/23 08:53:58;;;;;;;0.60;0.60;;;;;7.30;95168.00;;;;8300350;28;20264;-76
2023/12/23 08:58:02;;;;;;;0.87;0.87;;;;;7.30;95165.00;;;;8302657;28;20198;-75
2023/12/23 09:02:06;;;;;;;0.70;0.70;;;;;7.40;95165.00;;;;8305729;28;20221;-76
2023/12/23 09:06:11;;;;;;;1.87;0.80;;;;;7.40;95173.00;;;;8303942;28;20935;-76
2023/12/23 09:10:16;;;;;;;2.05;0.65;;;;;7.40;95170.00;;;;8314522;28;20809;-75
2023/12/23 09:14:19;;;;;;;0.63;0.63;;;;;7.40;95177.00;;;;8309125;28;20717;-75
2023/12/23 09:18:22;;;;;;;0.60;0.60;;;;;7.50;95169.00;;;;8312332;28;20681;-75
2023/12/23 09:22:26;;;;;;;0.60;0.60;;;;;7.50;95165.00;;;;8312513;28;20588;-76
2023/12/23 09:26:30;;;;;;;0.68;0.68;;;;;7.50;95158.00;;;;8313927;28;20229;-75
2023/12/23 09:30:33;;;;;;;0.70;0.70;;;;;7.50;95166.00;;;;8304593;28;20196;-77
2023/12/23 09:34:36;;;;;;;0.60;0.60;;;;;7.50;95167.00;;;;8308785;28;20560;-76
2023/12/23 09:38:40;;;;;;;0.73;0.73;;;;;7.60;95135.00;;;;8303996;28;20850;-75
2023/12/23 09:42:44;;;;;;;1.45;0.70;;;;;7.60;95166.00;;;;8302533;28;20212;-75
2023/12/23 09:46:49;;;;;;;0.77;0.52;;;;;7.60;95173.00;;;;8303463;28;20200;-75
2023/12/23 09:50:52;;;;;;;2.55;0.60;;;;;7.60;95177.00;;;;8302406;28;20194;-75
2023/12/23 09:54:58;;;;;;;0.60;0.60;;;;;7.60;95158.00;;;;8302456;28;20637;-76
2023/12/23 09:59:07;;;;;;;0.63;0.63;;;;;7.60;95182.00;;;;8302744;28;20191;-75
2023/12/23 10:03:10;;;;;;;0.77;0.70;;;;;7.60;95171.00;;;;8300763;28;20592;-76
2023/12/23 10:07:16;;;;;;;0.68;0.60;;;;;7.60;95176.00;;;;8302351;28;20226;-75
2023/12/23 10:11:19;;;;;;;0.65;0.65;;;;;7.60;95202.00;;;;8302039;28;20194;-73
2023/12/23 10:15:24;;;;;;;0.65;0.65;;;;;7.60;95181.00;;;;8301677;28;20230;-74
2023/12/23 10:19:27;;;;;;;0.65;0.65;;;;;7.70;95182.00;;;;8302809;28;20230;-74
2023/12/23 10:23:31;;;;;;;0.63;0.63;;;;;7.60;95183.00;;;;8302494;28;20206;-74
2023/12/23 10:27:35;;;;;;;0.60;0.60;;;;;7.60;95189.00;;;;8302363;28;20531;-76
2023/12/23 10:31:42;;;;;;;0.60;0.60;;;;;7.60;95164.00;;;;8302390;28;20198;-75
2023/12/23 10:35:46;;;;;;;0.60;0.60;;;;;7.60;95187.00;;;;8301218;28;20246;-75
2023/12/23 10:39:55;;;;;;;0.70;0.70;;;;;7.60;95165.00;;;;8301107;28;20205;-75
2023/12/23 10:43:59;;;;;;;0.87;0.63;;;;;7.60;95193.00;;;;8301924;28;20213;-75
2023/12/23 10:48:05;;;;;;;0.80;0.80;;;;;7.60;95180.00;;;;8300824;28;20205;-75
2023/12/23 10:52:09;;;;;;;0.60;0.60;;;;;7.60;95182.00;;;;8301134;28;20189;-75
2023/12/23 10:56:14;;;;;;;0.60;0.60;;;;;7.70;95186.00;;;;8301125;28;20229;-74
2023/12/23 11:00:19;;;;;;;0.87;0.50;;;;;7.70;95183.00;;;;8300914;28;20201;-74
2023/12/23 11:04:25;;;;;;;0.50;0.50;;;;;7.80;95179.00;;;;8301296;28;20312;-77
2023/12/23 11:08:30;;;;;;;1.07;0.60;;;;;7.70;95180.00;;;;8301006;28;20194;-74
2023/12/23 11:12:35;;;;;;;0.50;0.50;;;;;7.70;95182.00;;;;8301710;28;20608;-76
2023/12/23 11:16:40;;;;;;;1.70;0.50;;;;;7.70;95175.00;;;;8299645;28;20531;-76
2023/12/23 11:20:50;;;;;;;0.70;0.70;;;;;7.70;95172.00;;;;8298497;28;20544;-74
2023/12/23 11:24:54;;;;;;;0.60;0.60;;;;;7.70;95179.00;;;;8300258;28;20214;-73
2023/12/23 11:28:58;;;;;;;1.10;0.70;;;;;7.70;95149.00;;;;8298843;28;20190;-74
2023/12/23 11:33:04;;;;;;;0.50;0.50;;;;;7.70;95189.00;;;;8299601;28;20193;-74
2023/12/23 11:37:10;;;;;;;0.60;0.60;;;;;7.60;95183.00;;;;8298903;28;20290;-74
2023/12/23 11:41:13;;;;;;;0.60;0.60;;;;;7.70;95177.00;;;;8300320;28;20219;-72
2023/12/23 11:45:17;;;;;;;0.50;0.50;;;;;7.70;95183.00;;;;8298328;28;20640;-72
2023/12/23 11:49:21;;;;;;;0.53;0.53;;;;;7.70;95195.00;;;;8297393;28;20241;-71
2023/12/23 11:53:26;;;;;;;0.60;0.60;;;;;7.70;95165.00;;;;8298946;28;20204;-73
2023/12/23 11:57:29;;;;;;;0.73;0.73;;;;;7.70;95152.00;;;;8299993;28;20276;-72
2023/12/23 12:01:34;;;;;;;0.60;0.60;;;;;7.70;95177.00;;;;8299093;28;20640;-72
2023/12/23 12:05:37;;;;;;;0.60;0.60;;;;;7.70;95163.00;;;;8298514;28;20197;-71
2023/12/23 12:09:42;;;;;;;0.60;0.60;;;;;7.60;95170.00;;;;8299343;28;20195;-72
2023/12/23 12:13:46;;;;;;;0.60;0.60;;;;;7.60;95180.00;;;;8298422;28;20218;-72
2023/12/23 12:17:51;;;;;;;0.60;0.60;;;;;7.60;95162.00;;;;8298993;28;20535;-73
2023/12/23 12:21:55;;;;;;;0.40;0.40;;;;;7.60;95192.00;;;;8298390;28;20190;-72
2023/12/23 12:26:00;;;;;;;0.50;0.50;;;;;7.60;95159.00;;;;8322629;28;20212;-73
2023/12/23 12:30:07;;;;;;;1.25;1.05;;;;;7.60;95182.00;;;;8337974;28;20247;-73
2023/12/23 12:34:12;;;;;;;0.52;0.52;;;;;7.60;95192.00;;;;8338158;28;20611;-73
2023/12/23 12:38:17;;;;;;;0.93;0.90;;;;;7.60;95205.00;;;;8337911;28;20187;-72
2023/12/23 12:42:27;;;;;;;1.02;0.65;;;;;7.70;95201.00;;;;8338056;28;20619;-72
2023/12/23 12:46:32;;;;;;;0.50;0.50;;;;;7.70;95212.00;;;;8338051;28;20611;-72
2023/12/23 12:50:35;;;;;;;0.50;0.50;;;;;7.70;95208.00;;;;8338108;28;20258;-71
2023/12/23 12:54:38;;;;;;;0.63;0.63;;;;;7.70;95212.00;;;;8337444;28;20225;-73
2023/12/23 12:58:43;;;;;;;5.40;3.47;;;;;7.70;95203.00;;;;8336785;28;20205;-73
2023/12/23 13:02:49;;;;;;;4.00;2.87;;;;;7.70;95198.00;;;;8336954;28;20221;-71
2023/12/23 13:06:53;;;;;;;51.17;21.80;;;;;7.70;95221.00;;;;8336110;28;20551;-71
2023/12/23 13:10:56;;;;;;;72.05;41.75;;;;;7.70;95214.00;;;;8337454;28;20587;-72
2023/12/23 13:15:02;;;;;;;8.05;6.20;;;;;7.70;95192.00;;;;8336065;28;20279;-71
2023/12/23 13:19:07;;;;;;;1.92;1.83;;;;;7.70;95226.00;;;;8336373;28;20182;-71
2023/12/23 13:23:11;;;;;;;42.47;26.77;;;;;7.70;95247.00;;;;8336796;28;20193;-71
2023/12/23 13:27:14;;;;;;;12.60;7.70;;;;;7.70;95238.00;;;;8336988;28;20185;-70
2023/12/23 13:31:19;;;;;;;51.72;24.45;;;;;7.70;95214.00;;;;8335912;28;20198;-71
2023/12/23 13:35:23;;;;;;;5.60;5.07;;;;;7.70;95243.00;;;;8335369;28;20216;-71
2023/12/23 13:39:26;;;;;;;5.05;4.55;;;;;7.70;95261.00;;;;8335778;28;20622;-71
2023/12/23 13:43:30;;;;;;;1.42;1.40;;;;;7.70;95258.00;;;;8335986;28;20194;-71
2023/12/23 13:47:41;;;;;;;1.43;1.43;;;;;7.60;95246.00;;;;8335974;28;20622;-71
2023/12/23 13:51:44;;;;;;;1.23;1.23;;;;;7.60;95278.00;;;;8334850;28;20188;-70
2023/12/23 13:55:49;;;;;;;1.00;1.00;;;;;7.60;95255.00;;;;8334929;28;20209;-71
2023/12/23 13:59:53;;;;;;;1.00;1.00;;;;;7.60;95274.00;;;;8335656;28;20224;-71
2023/12/23 14:03:57;;;;;;;0.70;0.70;;;;;7.60;95286.00;;;;8335777;28;20217;-71
2023/12/23 14:08:00;;;;;;;0.80;0.80;;;;;7.60;95300.00;;;;8334995;28;20189;-71
2023/12/23 14:12:04;;;;;;;0.60;0.60;;;;;7.60;95309.00;;;;8335579;28;20194;-69
2023/12/23 14:16:08;;;;;;;0.60;0.60;;;;;7.60;95288.00;;;;8334897;28;20651;-70
2023/12/23 14:20:13;;;;;;;0.77;0.77;;;;;7.60;95325.00;;;;8334614;28;20197;-70
2023/12/23 14:24:16;;;;;;;0.60;0.60;;;;;7.60;95329.00;;;;8333573;28;20190;-71
2023/12/23 14:28:19;;;;;;;0.70;0.70;;;;;7.60;95353.00;;;;8334590;28;20209;-70
2023/12/23 14:32:22;;;;;;;0.70;0.70;;;;;7.60;95346.00;;;;8333788;28;20203;-71
2023/12/23 14:36:31;;;;;;;1.90;0.60;;;;;7.50;95345.00;;;;8333744;28;20311;-70
2023/12/23 14:40:35;;;;;;;0.73;0.73;;;;;7.60;95343.00;;;;8334790;28;20187;-71
2023/12/23 14:44:38;;;;;;;0.70;0.70;;;;;7.60;95349.00;;;;8333706;28;20243;-71
2023/12/23 14:48:41;;;;;;;0.95;0.70;;;;;7.60;95339.00;;;;8333638;28;20196;-71
2023/12/23 14:52:46;;;;;;;0.70;0.70;;;;;7.60;95353.00;;;;8334796;28;20583;-71
2023/12/23 14:56:49;;;;;;;0.68;0.68;;;;;7.60;95356.00;;;;8334234;28;20677;-71
2023/12/23 15:00:52;;;;;;;0.55;0.55;;;;;7.60;95357.00;;;;8333834;28;20288;-71
2023/12/23 15:04:55;;;;;;;0.73;0.73;;;;;7.50;95385.00;;;;8334296;28;20539;-71
2023/12/23 15:09:00;;;;;;;0.70;0.70;;;;;7.50;95387.00;;;;8333830;28;20193;-71
2023/12/23 15:13:04;;;;;;;0.85;0.85;;;;;7.50;95416.00;;;;8334080;28;20197;-71
2023/12/23 15:17:08;;;;;;;0.60;0.60;;;;;7.50;95382.00;;;;8332745;28;20229;-71
2023/12/23 15:21:12;;;;;;;0.70;0.70;;;;;7.50;95398.00;;;;8332609;28;20223;-71
2023/12/23 15:25:16;;;;;;;1.65;0.90;;;;;7.50;95412.00;;;;8333288;28;20197;-71
2023/12/23 15:29:19;;;;;;;1.13;0.70;;;;;7.50;95416.00;;;;8332581;28;20201;-72
2023/12/23 15:33:23;;;;;;;1.33;0.80;;;;;7.50;95426.00;;;;8333274;28;20316;-72
2023/12/23 15:37:26;;;;;;;0.70;0.70;;;;;7.50;95417.00;;;;8331853;28;20230;-72
2023/12/23 15:41:31;;;;;;;0.60;0.60;;;;;7.50;95426.00;;;;8332037;28;20193;-71
2023/12/23 15:45:34;;;;;;;0.70;0.70;;;;;7.50;95429.00;;;;8329411;28;20193;-71
2023/12/23 15:49:37;;;;;;;0.60;0.60;;;;;7.40;95434.00;;;;8330596;28;20228;-75
2023/12/23 15:53:41;;;;;;;0.70;0.70;;;;;7.50;95437.00;;;;8330717;28;20193;-76
2023/12/23 15:57:46;;;;;;;0.70;0.70;;;;;7.50;95434.00;;;;8332077;28;20693;-76
2023/12/23 16:01:49;;;;;;;0.90;0.90;;;;;7.50;95451.00;;;;8330164;28;20233;-74
2023/12/23 16:05:52;;;;;;;0.77;0.77;;;;;7.50;95458.00;;;;8332555;28;20581;-75
2023/12/23 16:09:55;;;;;;;0.60;0.60;;;;;7.50;95454.00;;;;8331350;28;20581;-76
2023/12/23 16:14:00;;;;;;;0.70;0.70;;;;;7.60;95463.00;;;;8331307;28;20295;-77
2023/12/23 16:18:08;;;;;;;0.80;0.80;;;;;7.60;95461.00;;;;8331845;28;20209;-76
2023/12/23 16:22:12;;;;;;;0.77;0.77;;;;;7.60;95491.00;;;;8331981;28;20199;-75
2023/12/23 16:26:16;;;;;;;0.68;0.68;;;;;7.70;95481.00;;;;8331183;28;20240;-75
2023/12/23 16:30:22;;;;;;;0.73;0.73;;;;;7.70;95490.00;;;;8330814;28;20182;-75
2023/12/23 16:34:25;;;;;;;1.48;0.88;;;;;7.70;95504.00;;;;8331857;28;20246;-75
2023/12/23 16:38:28;;;;;;;39.72;15.52;;;;;7.70;95503.00;;;;8330591;28;20598;-75
2023/12/23 16:42:34;;;;;;;19.77;11.25;;;;;7.80;95506.00;;;;8329778;28;20193;-75
2023/12/23 16:46:38;;;;;;;75.40;36.60;;;;;7.80;95498.00;;;;8331465;28;20201;-75
2023/12/23 16:50:43;;;;;;;5.13;4.10;;;;;7.80;95513.00;;;;8331537;28;20195;-76
2023/12/23 16:54:47;;;;;;;2.35;2.05;;;;;7.70;95521.00;;;;8330304;28;20205;-76
2023/12/23 16:58:51;;;;;;;4.78;2.83;;;;;7.70;95540.00;;;;8330968;28;20221;-75
2023/12/23 17:02:56;;;;;;;2.20;2.10;;;;;7.70;95531.00;;;;8331099;28;20593;-76
2023/12/23 17:06:59;;;;;;;2.20;2.10;;;;;7.70;95536.00;;;;8330893;28;20220;-75
2023/12/23 17:11:05;;;;;;;5.53;5.03;;;;;7.70;95522.00;;;;8331267;28;20240;-75
2023/12/23 17:15:10;;;;;;;6.23;4.43;;;;;7.60;95565.00;;;;8335521;28;20189;-76
2023/12/23 17:19:14;;;;;;;2.40;2.20;;;;;7.60;95568.00;;;;8333979;28;20308;-76
2023/12/23 17:23:20;;;;;;;6.40;4.00;;;;;7.60;95560.00;;;;8336577;28;20201;-76
2023/12/23 17:27:23;;;;;;;3.67;2.33;;;;;7.60;95558.00;;;;8337378;28;20206;-75
2023/12/23 17:31:26;;;;;;;0.97;0.97;;;;;7.60;95581.00;;;;8336533;28;20197;-75
2023/12/23 17:35:31;;;;;;;1.02;1.02;;;;;7.60;95583.00;;;;8337064;28;20208;-75
2023/12/23 17:39:35;;;;;;;0.90;0.90;;;;;7.60;95570.00;;;;8336495;28;20248;-71
2023/12/23 17:43:38;;;;;;;1.70;1.10;;;;;7.60;95581.00;;;;8335570;28;20213;-72
2023/12/23 17:47:43;;;;;;;1.13;1.02;;;;;7.60;95573.00;;;;8336450;28;20204;-73
2023/12/23 17:51:48;;;;;;;1.27;1.00;;;;;7.60;95570.00;;;;8336574;28;20284;-72
2023/12/23 17:55:51;;;;;;;1.00;1.00;;;;;7.60;95564.00;;;;8335835;28;20550;-72
2023/12/23 17:59:54;;;;;;;1.20;1.20;;;;;7.60;95556.00;;;;8335001;28;20200;-71
2023/12/23 18:03:57;;;;;;;9.00;3.88;;;;;7.60;95582.00;;;;8335728;28;20249;-72
2023/12/23 18:08:02;;;;;;;8.48;7.45;;;;;7.60;95572.00;;;;8335289;28;20240;-72
2023/12/23 18:12:05;;;;;;;4.40;3.53;;;;;7.60;95554.00;;;;8335665;28;20206;-72
2023/12/23 18:16:08;;;;;;;1.65;1.55;;;;;7.60;95576.00;;;;8335274;28;20216;-72
2023/12/23 18:20:12;;;;;;;1.77;1.60;;;;;7.60;95582.00;;;;8334876;28;20229;-71
2023/12/23 18:24:18;;;;;;;1.17;1.10;;;;;7.60;95588.00;;;;8336383;28;20213;-72
2023/12/23 18:28:21;;;;;;;3.38;1.30;;;;;7.60;95587.00;;;;8334765;28;20192;-71
2023/12/23 18:32:24;;;;;;;3.95;2.65;;;;;7.60;95603.00;;;;8334582;28;20205;-72
2023/12/23 18:36:27;;;;;;;6.57;4.80;;;;;7.60;95603.00;;;;8334679;28;20625;-72
2023/12/23 18:40:32;;;;;;;2.85;2.13;;;;;7.60;95607.00;;;;8334317;28;20197;-72
2023/12/23 18:44:35;;;;;;;4.30;3.90;;;;;7.60;95626.00;;;;8333598;28;20178;-72
2023/12/23 18:48:38;;;;;;;5.38;4.25;;;;;7.60;95613.00;;;;8333860;28;20212;-72
2023/12/23 18:52:41;;;;;;;1.08;1.08;;;;;7.70;95607.00;;;;8334694;28;20610;-71
2023/12/23 18:56:46;;;;;;;1.25;1.02;;;;;7.70;95621.00;;;;8334333;28;20265;-72
2023/12/23 19:00:52;;;;;;;1.00;1.00;;;;;7.70;95609.00;;;;8333710;28;20524;-72
2023/12/23 19:05:01;;;;;;;0.80;0.80;;;;;7.70;95622.00;;;;8334417;28;20308;-72
2023/12/23 19:09:04;;;;;;;0.70;0.70;;;;;7.70;95599.00;;;;8332854;28;20186;-72
2023/12/23 19:13:09;;;;;;;0.80;0.80;;;;;7.70;95624.00;;;;8332907;28;20200;-71
2023/12/23 19:17:12;;;;;;;2.30;0.80;;;;;7.70;95619.00;;;;8332729;28;20225;-73
2023/12/23 19:21:15;;;;;;;2.20;0.93;;;;;7.70;95631.00;;;;8333225;28;20193;-73
2023/12/23 19:25:20;;;;;;;0.80;0.77;;;;;7.70;95615.00;;;;8332970;28;20285;-73
2023/12/23 19:29:25;;;;;;;1.33;1.20;;;;;7.70;95605.00;;;;8332479;28;20210;-73
2023/12/23 19:33:28;;;;;;;1.02;1.02;;;;;7.70;95609.00;;;;8333324;28;20512;-73
2023/12/23 19:37:32;;;;;;;1.55;1.00;;;;;7.70;95628.00;;;;8332539;28;20540;-73
2023/12/23 19:41:35;;;;;;;7.88;2.85;;;;;7.70;95630.00;;;;8332707;28;20193;-73
2023/12/23 19:45:41;;;;;;;3.20;2.25;;;;;7.70;95624.00;;;;8333023;28;20201;-73
2023/12/23 19:49:44;;;;;;;3.40;2.28;;;;;7.70;95637.00;;;;8331269;28;20614;-73
2023/12/23 19:53:47;;;;;;;1.90;1.80;;;;;7.70;95621.00;;;;8332361;28;20237;-73
2023/12/23 19:57:50;;;;;;;1.50;1.20;;;;;7.70;95636.00;;;;8331605;28;20261;-73
2023/12/23 20:01:54;;;;;;;2.63;2.42;;;;;7.80;95635.00;;;;8331142;28;20217;-73
2023/12/23 20:05:57;;;;;;;1.20;1.20;;;;;7.70;95638.00;;;;8331868;28;20232;-73
2023/12/23 20:10:01;;;;;;;1.63;1.27;;;;;7.70;95632.00;;;;8331221;28;20276;-73
2023/12/23 20:14:04;;;;;;;4.15;1.30;;;;;7.70;95622.00;;;;8332105;28;20280;-72
2023/12/23 20:18:09;;;;;;;0.80;0.80;;;;;7.70;95635.00;;;;8331482;28;20240;-73
2023/12/23 20:22:16;;;;;;;1.20;1.20;;;;;7.80;95643.00;;;;8331831;28;20638;-73
2023/12/23 20:26:20;;;;;;;2.25;1.20;;;;;7.80;95648.00;;;;8332072;28;20236;-73
2023/12/23 20:30:23;;;;;;;0.80;0.80;;;;;7.70;95656.00;;;;8330802;28;20613;-74
2023/12/23 20:34:29;;;;;;;0.90;0.90;;;;;7.80;95653.00;;;;8331611;28;20611;-74